Time;durP1;ratioP1;P1;durP2;ratioP2;P2;SDS_P1;SDS_P2;PMS_P1;PMS_P2;Temp;Humidity;BMP_temperature;BMP_pressure;BME280_temperature;BME280_humidity;BME280_pressure;Samples;Min_cycle;Max_cycle;Signal;HPM_P1;HPM_P2
2022/03/17 00:00:11;;;;;;;22.10;20.00;;;9.40;24.70;;;;;;5032959;28;20907;-69
2022/03/17 00:02:37;;;;;;;23.23;20.87;;;9.40;24.80;;;;;;5031471;28;20486;-69
2022/03/17 00:05:04;;;;;;;25.03;22.60;;;9.40;24.50;;;;;;5032874;28;20413;-69
2022/03/17 00:07:30;;;;;;;22.43;20.07;;;9.40;24.60;;;;;;5032427;28;20440;-69
2022/03/17 00:09:57;;;;;;;23.10;20.80;;;9.40;24.40;;;;;;5032738;28;20416;-69
2022/03/17 00:12:22;;;;;;;19.87;17.90;;;9.30;24.50;;;;;;5032563;28;20409;-69
2022/03/17 00:14:48;;;;;;;22.03;19.23;;;9.30;24.80;;;;;;5032735;28;20472;-69
2022/03/17 00:17:13;;;;;;;23.57;21.13;;;9.30;24.80;;;;;;5032345;28;20174;-69
2022/03/17 00:19:39;;;;;;;24.70;21.70;;;9.30;24.80;;;;;;5032666;28;20645;-69
2022/03/17 00:22:09;;;;;;;21.80;19.80;;;9.20;25.00;;;;;;5032539;28;20584;-69
2022/03/17 00:24:37;;;;;;;26.07;20.53;;;9.20;25.10;;;;;;5032701;28;20196;-69
2022/03/17 00:27:05;;;;;;;25.00;22.43;;;9.20;25.40;;;;;;5032186;28;20463;-69
2022/03/17 00:29:35;;;;;;;24.70;22.20;;;9.10;25.50;;;;;;5032674;28;20974;-69
2022/03/17 00:32:01;;;;;;;23.40;21.13;;;9.10;25.60;;;;;;5032447;28;20420;-70
2022/03/17 00:34:27;;;;;;;23.57;21.27;;;9.10;25.50;;;;;;5030992;28;20494;-69
2022/03/17 00:36:52;;;;;;;23.63;19.13;;;9.00;25.70;;;;;;5031103;28;20188;-69
2022/03/17 00:39:18;;;;;;;24.00;21.60;;;9.00;25.70;;;;;;5032419;28;20193;-69
2022/03/17 00:41:44;;;;;;;27.23;24.60;;;9.00;25.80;;;;;;5032208;28;20208;-69
2022/03/17 00:44:11;;;;;;;26.57;24.10;;;9.10;25.80;;;;;;5032058;28;20703;-69
2022/03/17 00:46:37;;;;;;;27.43;23.83;;;9.10;25.80;;;;;;5031895;28;20417;-69
2022/03/17 00:49:03;;;;;;;25.30;22.90;;;9.00;25.70;;;;;;5032314;28;20415;-69
2022/03/17 00:51:29;;;;;;;28.03;25.03;;;9.00;26.10;;;;;;5031108;28;20173;-69
2022/03/17 00:53:55;;;;;;;27.60;24.10;;;9.00;26.00;;;;;;5032309;28;20782;-69
2022/03/17 00:56:20;;;;;;;25.47;22.83;;;9.00;25.90;;;;;;5032108;28;20453;-69
2022/03/17 00:58:47;;;;;;;25.37;23.00;;;8.90;25.90;;;;;;5031932;28;20172;-69
2022/03/17 01:01:13;;;;;;;25.17;22.97;;;8.90;26.10;;;;;;5032069;28;20209;-69
2022/03/17 01:03:40;;;;;;;29.43;24.30;;;8.90;26.30;;;;;;5030699;28;20439;-69
2022/03/17 01:06:05;;;;;;;26.77;24.03;;;8.90;26.10;;;;;;5032019;28;20807;-69
2022/03/17 01:08:31;;;;;;;29.30;26.10;;;8.90;26.00;;;;;;5031356;28;20426;-69
2022/03/17 01:10:57;;;;;;;27.50;24.70;;;9.00;25.70;;;;;;5032334;28;20178;-69
2022/03/17 01:13:22;;;;;;;28.03;23.80;;;8.90;26.00;;;;;;5030372;28;20227;-69
2022/03/17 01:15:48;;;;;;;27.57;24.63;;;8.90;25.70;;;;;;5030809;28;20176;-69
2022/03/17 01:18:14;;;;;;;25.10;22.70;;;8.90;26.00;;;;;;5031778;28;20219;-69
2022/03/17 01:20:40;;;;;;;28.40;25.33;;;8.90;25.90;;;;;;5031933;28;20321;-69
2022/03/17 01:23:06;;;;;;;29.60;26.80;;;8.80;26.20;;;;;;5031836;28;20446;-69
2022/03/17 01:25:32;;;;;;;33.87;27.30;;;8.70;26.70;;;;;;5031882;28;20780;-69
2022/03/17 01:27:58;;;;;;;28.70;21.87;;;8.50;27.80;;;;;;5031804;28;20170;-70
2022/03/17 01:30:23;;;;;;;24.33;21.50;;;8.40;27.30;;;;;;5032001;28;20428;-69
2022/03/17 01:32:49;;;;;;;32.10;25.80;;;8.50;27.20;;;;;;5031706;28;20577;-69
2022/03/17 01:35:14;;;;;;;32.20;23.90;;;8.50;27.10;;;;;;5031625;28;20190;-69
2022/03/17 01:37:40;;;;;;;23.60;20.23;;;8.30;28.20;;;;;;5031430;28;20177;-69
2022/03/17 01:40:08;;;;;;;27.03;22.43;;;8.30;27.50;;;;;;5031469;28;20187;-69
2022/03/17 01:42:34;;;;;;;26.10;21.23;;;8.30;28.50;;;;;;5031561;28;20175;-69
2022/03/17 01:44:59;;;;;;;33.60;25.87;;;8.40;27.40;;;;;;5031897;28;20408;-69
2022/03/17 01:47:28;;;;;;;38.33;24.93;;;8.40;27.50;;;;;;5031270;28;20453;-69
2022/03/17 01:49:59;;;;;;;24.00;21.43;;;8.40;27.30;;;;;;5031937;28;20173;-69
2022/03/17 01:52:25;;;;;;;29.97;26.40;;;8.50;27.10;;;;;;5031393;28;20461;-69
2022/03/17 01:54:51;;;;;;;27.10;24.27;;;8.50;26.80;;;;;;5031378;28;20539;-69
2022/03/17 01:57:17;;;;;;;25.57;22.87;;;8.50;26.60;;;;;;5031163;28;20814;-69
2022/03/17 01:59:43;;;;;;;27.53;24.67;;;8.50;27.00;;;;;;5031401;28;20415;-69
2022/03/17 02:02:11;;;;;;;32.10;26.80;;;8.40;26.80;;;;;;5031235;28;20524;-69
2022/03/17 02:04:37;;;;;;;26.63;23.87;;;8.50;26.80;;;;;;5031424;28;20195;-69
2022/03/17 02:07:05;;;;;;;27.47;22.33;;;8.50;26.50;;;;;;5031129;28;20408;-69
2022/03/17 02:09:32;;;;;;;29.00;25.97;;;8.40;26.40;;;;;;5030091;28;20410;-69
2022/03/17 02:14:54;;;;;;;30.63;23.90;;;8.40;26.40;;;;;;5031817;28;20479;-69
2022/03/17 02:17:20;;;;;;;28.07;25.03;;;8.40;26.60;;;;;;5031087;28;20410;-69
2022/03/17 02:19:46;;;;;;;27.23;23.87;;;8.40;26.50;;;;;;5032500;28;20887;-69
2022/03/17 02:22:18;;;;;;;29.70;24.33;;;8.40;26.80;;;;;;5035006;28;20546;-69
2022/03/17 02:27:30;;;;;;;30.77;24.53;;;8.40;26.80;;;;;;5034909;28;20412;-69
2022/03/17 02:29:56;;;;;;;30.77;24.00;;;8.40;26.50;;;;;;5034859;28;20463;-69
2022/03/17 02:32:21;;;;;;;25.87;23.23;;;8.40;26.80;;;;;;5034914;28;20501;-69
2022/03/17 02:34:48;;;;;;;25.83;23.03;;;8.40;26.70;;;;;;5034974;28;20637;-69
2022/03/17 02:37:15;;;;;;;31.47;25.23;;;8.30;26.70;;;;;;5034463;28;20228;-69
2022/03/17 02:39:40;;;;;;;28.57;25.97;;;8.30;26.80;;;;;;5034451;28;20403;-69
2022/03/17 02:42:06;;;;;;;29.97;26.93;;;8.40;26.90;;;;;;5034537;28;20465;-69
2022/03/17 02:44:32;;;;;;;25.57;21.83;;;8.40;26.80;;;;;;5033001;28;20196;-69
2022/03/17 02:46:58;;;;;;;29.70;24.73;;;8.40;26.50;;;;;;5034135;28;20348;-69
2022/03/17 02:49:24;;;;;;;29.37;26.17;;;8.30;27.00;;;;;;5034218;28;20464;-69
2022/03/17 02:51:50;;;;;;;22.73;20.53;;;8.30;27.00;;;;;;5033264;28;20188;-71
2022/03/17 02:54:15;;;;;;;28.10;24.97;;;8.30;27.30;;;;;;5034426;28;20489;-69
2022/03/17 02:56:41;;;;;;;28.43;25.50;;;8.30;27.20;;;;;;5034280;28;20173;-68
2022/03/17 02:59:06;;;;;;;25.00;22.33;;;8.30;27.50;;;;;;5034380;28;20175;-69
2022/03/17 03:01:32;;;;;;;22.60;20.30;;;8.30;27.30;;;;;;5034130;28;20577;-69
2022/03/17 03:03:58;;;;;;;23.90;20.90;;;8.30;27.40;;;;;;5034094;28;20195;-69
2022/03/17 03:06:24;;;;;;;25.50;22.17;;;8.30;27.50;;;;;;5032628;28;20187;-69
2022/03/17 03:08:49;;;;;;;28.30;22.17;;;8.30;27.40;;;;;;5033960;28;20407;-69
2022/03/17 03:11:15;;;;;;;23.97;21.37;;;8.30;27.40;;;;;;5033960;28;20494;-69
2022/03/17 03:13:40;;;;;;;28.97;25.90;;;8.40;27.30;;;;;;5033847;28;20250;-69
2022/03/17 03:16:06;;;;;;;27.27;23.77;;;8.40;27.20;;;;;;5032505;28;20243;-69
2022/03/17 03:18:31;;;;;;;27.50;22.40;;;8.40;27.30;;;;;;5033528;28;20537;-69
2022/03/17 03:20:57;;;;;;;29.20;22.57;;;8.40;27.20;;;;;;5033736;28;20265;-69
2022/03/17 03:23:22;;;;;;;28.80;24.70;;;8.40;27.20;;;;;;5033638;28;20200;-69
2022/03/17 03:25:48;;;;;;;27.60;24.73;;;8.40;27.20;;;;;;5032608;28;20181;-69
2022/03/17 03:28:14;;;;;;;32.43;22.93;;;8.30;27.50;;;;;;5033299;28;20179;-69
2022/03/17 03:30:39;;;;;;;26.63;22.47;;;8.30;27.40;;;;;;5033410;28;20317;-70
2022/03/17 03:33:09;;;;;;;26.00;23.40;;;8.30;27.40;;;;;;5033569;28;20476;-70
2022/03/17 03:38:20;;;;;;;29.00;24.37;;;8.40;27.60;;;;;;5033575;28;20426;-69
2022/03/17 03:40:46;;;;;;;35.93;26.97;;;8.40;27.20;;;;;;5034031;28;20449;-69
2022/03/17 03:43:12;;;;;;;30.73;24.73;;;8.40;27.00;;;;;;5033199;28;20203;-69
2022/03/17 03:45:37;;;;;;;25.93;23.00;;;8.40;27.10;;;;;;5033263;28;20781;-69
2022/03/17 03:48:04;;;;;;;32.93;26.10;;;8.40;26.90;;;;;;5033260;28;20247;-69
2022/03/17 03:50:30;;;;;;;26.33;22.27;;;8.40;27.00;;;;;;5033299;28;20177;-69
2022/03/17 03:52:57;;;;;;;26.73;23.83;;;8.50;26.70;;;;;;5033018;28;20430;-69
2022/03/17 03:55:23;;;;;;;30.30;26.23;;;8.40;26.50;;;;;;5033188;28;20416;-69
2022/03/17 03:57:49;;;;;;;31.00;25.60;;;8.40;26.40;;;;;;5032641;28;20418;-69
2022/03/17 04:00:47;;;;;;;28.53;25.47;;;8.40;26.50;;;;;;5033189;28;20461;-69
2022/03/17 04:03:07;;;;;;;28.23;25.20;;;8.30;26.70;;;;;;5030680;28;20725;-69
2022/03/17 04:05:33;;;;;;;31.00;26.20;;;8.30;26.70;;;;;;5033029;28;20407;-69
2022/03/17 04:08:00;;;;;;;29.33;25.07;;;8.40;26.50;;;;;;5032642;28;20786;-69
2022/03/17 04:10:26;;;;;;;29.50;26.50;;;8.40;26.40;;;;;;5032744;28;20419;-69
2022/03/17 04:12:53;;;;;;;27.60;24.60;;;8.40;26.50;;;;;;5032516;28;20907;-69
2022/03/17 04:15:18;;;;;;;32.07;26.00;;;8.40;26.50;;;;;;5031458;28;20475;-69
2022/03/17 04:17:44;;;;;;;30.87;26.80;;;8.40;26.40;;;;;;5032405;28;20411;-69
2022/03/17 04:20:10;;;;;;;31.10;27.20;;;8.50;26.40;;;;;;5032666;28;20191;-69
2022/03/17 04:22:37;;;;;;;29.93;26.40;;;8.50;26.20;;;;;;5032419;28;20227;-69
2022/03/17 04:25:03;;;;;;;30.53;27.07;;;8.50;26.20;;;;;;5032573;28;20449;-69
2022/03/17 04:27:29;;;;;;;32.67;28.67;;;8.50;26.10;;;;;;5032261;28;20856;-69
2022/03/17 04:29:55;;;;;;;31.07;26.07;;;8.50;25.80;;;;;;5032392;28;20447;-69
2022/03/17 04:32:20;;;;;;;35.77;28.13;;;8.50;26.10;;;;;;5031086;28;20180;-69
2022/03/17 04:34:46;;;;;;;35.17;26.80;;;8.50;25.80;;;;;;5031095;28;20638;-69
2022/03/17 04:37:11;;;;;;;34.07;30.40;;;8.50;25.80;;;;;;5032033;28;20578;-69
2022/03/17 04:39:37;;;;;;;32.43;26.37;;;8.50;25.80;;;;;;5032186;28;20183;-69
2022/03/17 04:42:03;;;;;;;36.13;30.60;;;8.50;25.70;;;;;;5031146;28;20211;-69
2022/03/17 04:44:28;;;;;;;31.40;27.83;;;8.40;25.40;;;;;;5032113;28;20684;-69
2022/03/17 04:46:54;;;;;;;33.00;28.23;;;8.40;25.40;;;;;;5030960;28;20425;-69
2022/03/17 04:49:20;;;;;;;35.87;29.53;;;8.40;25.60;;;;;;5030949;28;20176;-69
2022/03/17 04:51:45;;;;;;;31.80;26.83;;;8.50;25.50;;;;;;5030731;28;20552;-69
2022/03/17 04:54:11;;;;;;;27.50;24.50;;;8.40;25.60;;;;;;5031892;28;20442;-69
2022/03/17 04:56:36;;;;;;;30.50;27.30;;;8.40;25.60;;;;;;5031808;28;20174;-69
2022/03/17 04:59:02;;;;;;;30.17;26.07;;;8.40;25.70;;;;;;5032097;28;20210;-69
2022/03/17 05:01:28;;;;;;;35.97;29.03;;;8.40;25.90;;;;;;5032177;28;20321;-67
2022/03/17 05:03:54;;;;;;;31.33;28.03;;;8.50;25.50;;;;;;5033004;28;20234;-68
2022/03/17 05:06:20;;;;;;;39.10;29.67;;;8.50;25.60;;;;;;5031524;28;20495;-67
2022/03/17 05:08:45;;;;;;;33.17;29.00;;;8.40;25.90;;;;;;5032689;28;20259;-68
2022/03/17 05:11:13;;;;;;;28.10;25.10;;;8.40;25.80;;;;;;5033197;28;20194;-67
2022/03/17 05:13:39;;;;;;;29.03;25.33;;;8.50;25.70;;;;;;5033307;28;20210;-68
2022/03/17 05:16:05;;;;;;;36.40;28.00;;;8.50;25.60;;;;;;5032174;28;20469;-67
2022/03/17 05:18:31;;;;;;;32.60;27.20;;;8.60;25.20;;;;;;5031490;28;20936;-67
2022/03/17 05:20:57;;;;;;;32.80;28.20;;;8.60;25.40;;;;;;5031784;28;20463;-67
2022/03/17 05:23:22;;;;;;;28.33;25.27;;;8.60;25.00;;;;;;5031954;28;20205;-67
2022/03/17 05:25:49;;;;;;;31.90;26.27;;;8.60;25.30;;;;;;5031867;28;20557;-67
2022/03/17 05:28:15;;;;;;;39.37;27.57;;;8.60;25.00;;;;;;5031737;28;20967;-67
2022/03/17 05:30:42;;;;;;;33.70;30.07;;;8.60;24.90;;;;;;5031957;28;20441;-67
2022/03/17 05:33:11;;;;;;;37.23;31.80;;;8.50;25.10;;;;;;5032113;28;20441;-68
2022/03/17 05:35:37;;;;;;;30.37;26.90;;;8.30;25.40;;;;;;5031812;28;20463;-68
2022/03/17 05:38:03;;;;;;;33.43;27.83;;;8.30;26.30;;;;;;5031945;28;20423;-68
2022/03/17 05:40:28;;;;;;;31.77;27.33;;;8.40;25.50;;;;;;5031923;28;20458;-68
2022/03/17 05:42:56;;;;;;;29.93;26.40;;;8.50;25.30;;;;;;5031691;28;20692;-68
2022/03/17 05:45:25;;;;;;;38.17;30.53;;;8.60;25.40;;;;;;5032420;28;20178;-68
2022/03/17 05:47:52;;;;;;;31.80;28.40;;;8.60;25.60;;;;;;5033621;28;20411;-69
2022/03/17 05:50:21;;;;;;;29.10;25.97;;;8.60;25.30;;;;;;5032206;28;20423;-68
2022/03/17 05:52:48;;;;;;;32.70;28.03;;;8.60;25.20;;;;;;5033006;28;20562;-68
2022/03/17 05:55:20;;;;;;;29.37;26.23;;;8.60;25.30;;;;;;5035780;28;20418;-67
2022/03/17 05:57:47;;;;;;;34.67;26.63;;;8.60;25.10;;;;;;5033884;28;20803;-71
2022/03/17 06:00:18;;;;;;;27.83;24.67;;;8.60;25.00;;;;;;5035184;28;20416;-70
2022/03/17 06:02:44;;;;;;;27.20;24.17;;;8.70;25.20;;;;;;5034994;28;20434;-70
2022/03/17 06:05:11;;;;;;;33.50;27.23;;;8.70;25.40;;;;;;5034925;28;20771;-69
2022/03/17 06:07:43;;;;;;;37.13;28.47;;;8.70;25.20;;;;;;5033305;28;20427;-70
2022/03/17 06:10:11;;;;;;;34.33;29.67;;;8.80;25.00;;;;;;5034901;28;20771;-70
2022/03/17 06:12:38;;;;;;;36.97;30.17;;;8.80;24.60;;;;;;5034850;28;20459;-70
2022/03/17 06:15:04;;;;;;;33.90;30.23;;;8.80;24.30;;;;;;5035031;28;20444;-70
2022/03/17 06:17:39;;;;;;;32.17;26.83;;;8.80;24.30;;;;;;5034644;28;20443;-70
2022/03/17 06:20:06;;;;;;;33.43;29.77;;;8.80;24.30;;;;;;5033940;28;20473;-70
2022/03/17 06:22:32;;;;;;;32.80;29.37;;;8.90;24.00;;;;;;5035026;28;20438;-70
2022/03/17 06:24:57;;;;;;;33.80;28.33;;;8.90;23.90;;;;;;5033936;28;20784;-70
2022/03/17 06:27:24;;;;;;;32.20;28.80;;;8.90;24.20;;;;;;5034752;28;20419;-70
2022/03/17 06:29:49;;;;;;;32.77;29.30;;;9.00;23.90;;;;;;5034718;28;20651;-70
2022/03/17 06:32:15;;;;;;;33.07;28.77;;;9.00;24.00;;;;;;5035058;28;20424;-71
2022/03/17 06:34:40;;;;;;;32.17;28.80;;;9.10;24.00;;;;;;5034764;28;20180;-68
2022/03/17 06:37:06;;;;;;;29.50;26.40;;;9.20;23.90;;;;;;5033415;28;20284;-68
2022/03/17 06:39:31;;;;;;;29.57;26.47;;;9.30;23.30;;;;;;5034899;28;20654;-68
2022/03/17 06:41:57;;;;;;;37.60;29.73;;;9.30;23.20;;;;;;5034318;28;20270;-69
2022/03/17 06:44:22;;;;;;;30.07;26.80;;;9.30;23.00;;;;;;5034306;28;20197;-69
2022/03/17 06:46:48;;;;;;;35.13;30.20;;;9.40;23.30;;;;;;5032724;28;20179;-69
2022/03/17 06:49:13;;;;;;;30.80;27.63;;;9.40;22.90;;;;;;5032943;28;20185;-68
2022/03/17 06:51:39;;;;;;;34.40;30.90;;;9.50;23.00;;;;;;5034502;28;20210;-68
2022/03/17 06:54:04;;;;;;;30.90;27.60;;;9.40;22.90;;;;;;5034137;28;20210;-68
2022/03/17 06:56:31;;;;;;;33.47;29.73;;;9.50;23.00;;;;;;5033973;28;20186;-69
2022/03/17 06:58:56;;;;;;;30.93;27.57;;;9.50;23.00;;;;;;5034080;28;20175;-68
2022/03/17 07:01:22;;;;;;;34.90;28.97;;;9.60;23.10;;;;;;5033864;28;20833;-68
2022/03/17 07:03:47;;;;;;;32.27;28.77;;;9.60;23.00;;;;;;5034124;28;20672;-68
2022/03/17 07:06:13;;;;;;;31.17;27.87;;;9.60;22.90;;;;;;5033228;28;20177;-68
2022/03/17 07:08:38;;;;;;;31.90;28.17;;;9.60;23.10;;;;;;5032453;28;20697;-68
2022/03/17 07:11:04;;;;;;;28.77;26.00;;;9.60;23.10;;;;;;5033951;28;20639;-68
2022/03/17 07:13:30;;;;;;;32.50;26.57;;;9.70;23.10;;;;;;5033515;28;20218;-69
2022/03/17 07:15:55;;;;;;;35.90;31.10;;;9.80;22.90;;;;;;5033516;28;20178;-69
2022/03/17 07:18:21;;;;;;;32.50;28.10;;;9.70;23.10;;;;;;5033158;28;20190;-69
2022/03/17 07:20:47;;;;;;;33.70;30.60;;;9.80;22.80;;;;;;5033367;28;20692;-69
2022/03/17 07:23:12;;;;;;;36.77;32.83;;;10.00;21.80;;;;;;5033496;28;20201;-69
2022/03/17 07:25:38;;;;;;;37.63;33.63;;;9.90;22.30;;;;;;5033483;28;20406;-69
2022/03/17 07:28:04;;;;;;;36.97;31.27;;;10.00;21.80;;;;;;5033267;28;20179;-69
2022/03/17 07:30:31;;;;;;;35.30;31.50;;;10.10;21.40;;;;;;5033435;28;20233;-69
2022/03/17 07:32:59;;;;;;;29.00;26.30;;;10.00;21.40;;;;;;5033266;28;20441;-69
2022/03/17 07:35:25;;;;;;;33.00;29.60;;;10.10;21.50;;;;;;5033385;28;20819;-69
2022/03/17 07:37:51;;;;;;;33.90;29.47;;;10.20;21.00;;;;;;5033033;28;20421;-69
2022/03/17 07:40:18;;;;;;;31.23;28.03;;;10.20;21.80;;;;;;5033412;28;20459;-69
2022/03/17 07:42:44;;;;;;;29.33;26.70;;;10.30;21.20;;;;;;5033213;28;20935;-68
2022/03/17 07:45:11;;;;;;;33.90;30.40;;;10.40;21.00;;;;;;5033083;28;20414;-69
2022/03/17 07:47:47;;;;;;;30.53;27.33;;;10.50;21.00;;;;;;5033071;28;20177;-69
2022/03/17 07:50:13;;;;;;;31.33;28.40;;;10.70;20.70;;;;;;5033286;28;20849;-68
2022/03/17 07:52:39;;;;;;;31.87;29.07;;;10.70;20.50;;;;;;5032985;28;20882;-69
2022/03/17 07:55:05;;;;;;;30.27;27.63;;;10.80;20.10;;;;;;5031658;28;20422;-69
2022/03/17 07:57:31;;;;;;;31.23;25.83;;;10.70;20.20;;;;;;5032774;28;20185;-68
2022/03/17 07:59:57;;;;;;;31.17;28.30;;;10.70;20.40;;;;;;5033167;28;20448;-69
2022/03/17 08:02:23;;;;;;;31.40;28.20;;;10.70;20.60;;;;;;5032776;28;20465;-69
2022/03/17 08:04:50;;;;;;;30.37;27.53;;;10.70;20.70;;;;;;5032762;28;20769;-69
2022/03/17 08:07:16;;;;;;;31.27;27.70;;;10.80;20.90;;;;;;5032410;28;20220;-69
2022/03/17 08:09:42;;;;;;;28.07;25.43;;;10.80;21.00;;;;;;5032645;28;20410;-68
2022/03/17 08:12:08;;;;;;;27.90;25.33;;;10.80;21.30;;;;;;5032602;28;20433;-68
2022/03/17 08:14:34;;;;;;;28.27;25.83;;;10.90;21.50;;;;;;5031668;28;20555;-68
2022/03/17 08:16:59;;;;;;;26.33;23.63;;;10.90;21.30;;;;;;5031158;28;20935;-69
2022/03/17 08:19:25;;;;;;;24.30;22.50;;;11.00;21.50;;;;;;5032548;28;20188;-69
2022/03/17 08:21:50;;;;;;;30.63;27.70;;;11.00;21.50;;;;;;5031606;28;20210;-69
2022/03/17 08:24:16;;;;;;;30.17;26.97;;;11.10;21.00;;;;;;5032541;28;20191;-69
2022/03/17 08:26:41;;;;;;;26.93;24.63;;;11.20;20.20;;;;;;5031830;28;20171;-69
2022/03/17 08:29:07;;;;;;;31.60;28.30;;;11.30;20.20;;;;;;5032331;28;20208;-69
2022/03/17 08:31:33;;;;;;;33.33;30.03;;;11.30;19.80;;;;;;5032181;28;20186;-71
2022/03/17 08:33:58;;;;;;;36.03;32.67;;;11.40;18.80;;;;;;5032440;28;20227;-70
2022/03/17 08:36:24;;;;;;;33.10;29.53;;;11.10;19.10;;;;;;5031928;28;20235;-69
2022/03/17 08:38:54;;;;;;;31.87;28.70;;;11.10;19.70;;;;;;5032205;28;20722;-70
2022/03/17 08:41:20;;;;;;;33.47;30.23;;;11.20;19.20;;;;;;5032026;28;20461;-69
2022/03/17 08:43:46;;;;;;;34.13;29.93;;;11.20;19.20;;;;;;5030909;28;20533;-69
2022/03/17 08:51:40;;;;;;;33.07;29.70;;;11.20;19.40;;;;;;5031970;28;21013;-70
2022/03/17 08:54:05;;;;;;;31.53;28.23;;;11.20;20.10;;;;;;5030521;28;20482;-70
2022/03/17 08:56:33;;;;;;;33.07;28.50;;;11.30;19.20;;;;;;5031987;28;20214;-70
2022/03/17 08:58:59;;;;;;;33.60;30.07;;;11.30;19.20;;;;;;5012107;28;20191;-69
2022/03/17 09:01:24;;;;;;;34.83;29.40;;;11.50;19.40;;;;;;5013546;28;20964;-70
2022/03/17 09:03:51;;;;;;;28.57;25.73;;;11.60;18.60;;;;;;5032702;28;20452;-69
2022/03/17 09:06:16;;;;;;;30.27;27.40;;;11.60;19.40;;;;;;5050439;28;20182;-69
2022/03/17 09:08:42;;;;;;;31.90;28.70;;;11.70;19.50;;;;;;5044824;28;20511;-69
2022/03/17 09:11:07;;;;;;;33.33;30.00;;;11.90;19.10;;;;;;5047366;28;20668;-68
2022/03/17 09:13:34;;;;;;;29.33;26.70;;;12.10;18.60;;;;;;5027488;28;20276;-68
2022/03/17 09:15:59;;;;;;;33.67;30.37;;;12.30;18.40;;;;;;5019259;28;20271;-68
2022/03/17 09:18:27;;;;;;;34.37;30.80;;;12.40;17.60;;;;;;5007392;28;20525;-68
2022/03/17 09:20:52;;;;;;;29.23;26.30;;;12.50;17.50;;;;;;5020158;28;20207;-69
2022/03/17 09:23:19;;;;;;;33.23;29.83;;;12.60;17.90;;;;;;5026683;28;20461;-68
2022/03/17 09:25:45;;;;;;;30.37;27.67;;;12.80;17.10;;;;;;5027190;28;20175;-68
2022/03/17 09:28:11;;;;;;;39.20;29.80;;;12.30;17.50;;;;;;5026177;28;20453;-69
2022/03/17 09:30:37;;;;;;;32.27;28.93;;;12.10;17.90;;;;;;5032005;28;20779;-69
2022/03/17 09:33:04;;;;;;;47.40;29.17;;;12.20;18.30;;;;;;5031523;28;20491;-68
2022/03/17 09:35:30;;;;;;;33.73;30.27;;;11.80;18.40;;;;;;5031604;28;20648;-68
2022/03/17 09:37:56;;;;;;;33.03;29.47;;;11.40;19.30;;;;;;5031749;28;20417;-68
2022/03/17 09:40:22;;;;;;;35.23;31.53;;;11.10;19.90;;;;;;5030746;28;20548;-68
2022/03/17 09:42:48;;;;;;;34.60;30.50;;;11.00;20.30;;;;;;5031201;28;20953;-68
2022/03/17 09:45:14;;;;;;;32.07;28.83;;;11.00;21.00;;;;;;5032056;28;20422;-68
2022/03/17 09:47:42;;;;;;;32.13;28.90;;;11.00;21.00;;;;;;5031055;28;20663;-68
2022/03/17 09:50:10;;;;;;;30.73;27.63;;;10.90;20.70;;;;;;5031014;28;20436;-68
2022/03/17 09:52:38;;;;;;;34.37;27.80;;;10.80;21.40;;;;;;5021659;28;20458;-68
2022/03/17 09:55:04;;;;;;;33.90;29.80;;;11.10;21.50;;;;;;5013480;28;20826;-68
2022/03/17 09:57:31;;;;;;;37.13;32.77;;;11.20;21.50;;;;;;5025846;28;20521;-68
2022/03/17 09:59:58;;;;;;;38.33;31.13;;;11.00;21.80;;;;;;5034607;28;20518;-68
2022/03/17 10:02:25;;;;;;;39.67;30.87;;;11.20;21.70;;;;;;5034086;28;20458;-68
2022/03/17 10:04:51;;;;;;;28.93;26.07;;;11.20;21.80;;;;;;5034781;28;20572;-68
2022/03/17 10:07:18;;;;;;;29.47;26.73;;;11.50;21.60;;;;;;5034701;28;20414;-68
2022/03/17 10:09:45;;;;;;;30.73;27.87;;;11.60;21.50;;;;;;5034348;28;20437;-68
2022/03/17 10:12:13;;;;;;;31.03;27.80;;;11.50;21.60;;;;;;5022335;28;20446;-69
2022/03/17 10:14:39;;;;;;;29.83;26.93;;;11.60;21.80;;;;;;5022435;28;20499;-68
2022/03/17 10:17:28;;;;;;;28.57;25.57;;;11.70;21.20;;;;;;5032280;28;20436;-68
2022/03/17 10:20:10;;;;;;;29.23;25.83;;;12.10;21.10;;;;;;5033629;28;20426;-69
2022/03/17 10:22:47;;;;;;;28.90;26.30;;;12.40;20.40;;;;;;5033850;28;20499;-68
2022/03/17 10:25:19;;;;;;;32.10;28.73;;;12.60;20.10;;;;;;5033869;28;20773;-69
2022/03/17 10:27:45;;;;;;;28.90;26.00;;;12.50;20.10;;;;;;5032104;28;20426;-69
2022/03/17 10:30:12;;;;;;;31.77;28.83;;;12.80;20.30;;;;;;5033546;28;20873;-68
2022/03/17 10:32:38;;;;;;;29.47;26.63;;;12.90;20.30;;;;;;5032496;28;20473;-68
2022/03/17 10:35:08;;;;;;;30.53;27.63;;;13.20;19.50;;;;;;5030576;28;20446;-68
2022/03/17 10:37:36;;;;;;;28.50;26.13;;;13.30;19.00;;;;;;5029872;28;20432;-68
2022/03/17 10:40:07;;;;;;;34.87;31.07;;;13.40;18.70;;;;;;5029247;28;20735;-68
2022/03/17 10:42:33;;;;;;;31.97;29.10;;;12.80;18.70;;;;;;5030598;28;20531;-68
2022/03/17 10:45:05;;;;;;;32.43;28.90;;;12.60;19.50;;;;;;5032771;28;20438;-68
2022/03/17 10:47:33;;;;;;;34.47;31.17;;;12.60;19.90;;;;;;5034702;28;20434;-68
2022/03/17 10:50:20;;;;;;;35.50;32.17;;;12.40;20.00;;;;;;5032025;28;20466;-68
2022/03/17 10:53:00;;;;;;;33.77;30.30;;;12.40;19.70;;;;;;5033928;28;20457;-70
2022/03/17 10:55:31;;;;;;;31.13;28.43;;;12.50;20.10;;;;;;5034148;28;20433;-67
2022/03/17 10:58:11;;;;;;;31.13;28.13;;;12.60;20.10;;;;;;5033424;28;20449;-69
2022/03/17 11:00:45;;;;;;;31.80;28.90;;;12.20;19.90;;;;;;5034056;28;20989;-69
2022/03/17 11:03:12;;;;;;;33.63;29.60;;;12.50;20.10;;;;;;5034785;28;20838;-69
2022/03/17 11:05:38;;;;;;;30.57;27.67;;;12.60;19.10;;;;;;5033858;28;20418;-67
2022/03/17 11:08:09;;;;;;;31.13;28.27;;;12.60;19.40;;;;;;5033255;28;20410;-67
2022/03/17 11:10:36;;;;;;;29.60;26.97;;;12.70;19.30;;;;;;5033416;28;20184;-67
2022/03/17 11:13:09;;;;;;;28.43;25.77;;;12.90;19.50;;;;;;5054604;22;20488;-70
2022/03/17 11:15:38;;;;;;;30.07;27.17;;;13.10;19.30;;;;;;5014072;28;20440;-70
2022/03/17 11:18:06;;;;;;;27.70;25.03;;;13.10;18.80;;;;;;5013403;28;20505;-70
2022/03/17 11:20:32;;;;;;;28.13;25.37;;;12.70;18.50;;;;;;5020095;28;20524;-71
2022/03/17 11:23:03;;;;;;;26.70;24.33;;;12.60;19.10;;;;;;5018125;28;20446;-70
2022/03/17 11:25:29;;;;;;;25.20;22.90;;;12.60;19.90;;;;;;5014072;28;20451;-69
2022/03/17 11:28:00;;;;;;;28.33;25.93;;;13.00;19.60;;;;;;5013767;28;20438;-70
2022/03/17 11:30:43;;;;;;;26.10;24.00;;;13.30;19.00;;;;;;5012422;28;20183;-71
2022/03/17 11:33:56;;;;;;;27.03;24.60;;;13.50;18.80;;;;;;5012322;28;20441;-70
2022/03/17 11:36:23;;;;;;;30.00;27.00;;;13.70;17.90;;;;;;4948244;28;20456;-73
2022/03/17 11:38:55;;;;;;;28.23;25.83;;;13.80;17.80;;;;;;4971989;28;20427;-71
2022/03/17 11:41:24;;;;;;;30.07;25.70;;;14.00;18.10;;;;;;4995651;28;20470;-69
2022/03/17 11:43:49;;;;;;;26.90;24.43;;;14.10;18.30;;;;;;5012016;28;20489;-70
2022/03/17 11:46:16;;;;;;;26.17;24.27;;;14.20;17.00;;;;;;5012605;28;20411;-70
2022/03/17 11:48:44;;;;;;;25.93;23.63;;;14.30;17.00;;;;;;5013334;28;20182;-70
2022/03/17 11:51:12;;;;;;;26.93;24.63;;;14.40;17.10;;;;;;5012620;28;20434;-70
2022/03/17 11:53:47;;;;;;;27.80;25.37;;;14.50;17.20;;;;;;5013225;28;20450;-71
2022/03/17 11:56:32;;;;;;;34.17;25.80;;;14.60;16.80;;;;;;5013197;28;20430;-71
2022/03/17 11:58:58;;;;;;;28.53;25.93;;;14.70;16.90;;;;;;5013498;28;20426;-71
2022/03/17 12:01:34;;;;;;;24.37;22.60;;;14.70;16.20;;;;;;5013414;28;20450;-71
2022/03/17 12:04:06;;;;;;;30.00;27.17;;;14.70;16.80;;;;;;5013328;28;20229;-71
2022/03/17 12:06:37;;;;;;;30.23;27.53;;;14.50;16.90;;;;;;5013364;28;20494;-71
2022/03/17 12:09:10;;;;;;;27.87;25.47;;;14.40;17.10;;;;;;5013332;28;20824;-71
2022/03/17 12:11:46;;;;;;;31.07;28.27;;;14.50;17.20;;;;;;5012057;28;20428;-69
2022/03/17 12:14:16;;;;;;;27.93;25.37;;;14.10;16.90;;;;;;5007763;28;20826;-70
2022/03/17 12:16:46;;;;;;;28.30;26.10;;;14.20;17.80;;;;;;5012931;28;20858;-71
2022/03/17 12:19:36;;;;;;;25.03;22.60;;;13.80;17.00;;;;;;5013299;28;20414;-71
2022/03/17 12:22:15;;;;;;;27.87;25.37;;;13.80;18.20;;;;;;5012935;28;20520;-72
2022/03/17 12:24:47;;;;;;;28.40;25.97;;;14.00;18.40;;;;;;5013232;28;20453;-71
2022/03/17 12:27:29;;;;;;;24.60;22.40;;;14.10;18.00;;;;;;5012900;28;20409;-68
2022/03/17 12:29:59;;;;;;;32.13;27.50;;;14.20;18.20;;;;;;5011356;28;20420;-69
2022/03/17 12:32:37;;;;;;;26.70;24.20;;;13.90;18.30;;;;;;5018426;28;20445;-68
2022/03/17 12:35:04;;;;;;;27.40;23.83;;;13.90;18.50;;;;;;5012776;28;20836;-68
2022/03/17 12:37:32;;;;;;;34.20;24.73;;;13.60;19.40;;;;;;5012452;28;20900;-69
2022/03/17 12:40:02;;;;;;;26.20;23.67;;;13.80;19.50;;;;;;5012493;28;20413;-68
2022/03/17 12:42:32;;;;;;;26.63;23.90;;;13.90;19.40;;;;;;5011195;28;20506;-70
2022/03/17 12:45:05;;;;;;;27.50;25.07;;;13.60;19.40;;;;;;5012163;28;20456;-68
2022/03/17 12:47:33;;;;;;;30.27;27.00;;;13.80;18.90;;;;;;5012279;28;20422;-69